Flight Track Log - Related Links

Times and Time Zones

All times are in EDT time to prevent confusion due to time zone crossing. See the EGF9805 flight status page for this flight to view local times or setup timezone preferences in your user account.

Time Position Orientation Groundspeed Altitude Reporting Facility
EDT Latitude Longitude Course Direction KTS MPH feet Rate Location/Type
Sat 09:02:26 PM 32.8850 -97.0514 181° South 147 169 1,600  Level FAA TRACON SMA TRACON (SMA)
Sat 09:03:05 PM 32.8514 -97.0522 180° South 201 231 2,800 2,325 Climbing FAA TRACON SMA TRACON (SMA)
Sat 09:03:46 PM 32.8061 -97.0525 193° South 238 274 4,700 3,075 Climbing FAA TRACON SMA TRACON (SMA)
Sat 09:04:25 PM 32.7614 -97.0650 254° West 258 297 6,900 3,000 Climbing FAA TRACON SMA TRACON (SMA)
Sat 09:05:06 PM 32.7489 -97.1156 269° West 268 308 8,700 2,025 Climbing FAA TRACON SMA TRACON (SMA)
Sat 09:05:45 PM 32.7478 -97.1817 269° West 293 337 9,600 1,425 Climbing FAA TRACON SMA TRACON (SMA)
Sat 09:06:26 PM 32.7467 -97.2544 269° West 320 368 10,600 1,425 Climbing FAA TRACON SMA TRACON (SMA)
Sat 09:07:05 PM 32.7453 -97.3228 269° West 334 384 11,500 1,500 Climbing FAA TRACON SMA TRACON (SMA)
Sat 09:07:46 PM 32.7439 -97.4017 269° West 345 397 12,600 1,704 Climbing FAA TRACON SMA TRACON (SMA)
Sat 09:08:26 PM 32.7425 -97.4722 268° West 347 399 13,800 1,976 Climbing FAA TRACON SMA TRACON (SMA)
Sat 09:09:08 PM 32.7394 -97.5608 268° West 347 399 15,300 2,025 Climbing FAA TRACON SMA TRACON (SMA)
Sat 09:09:46 PM 32.7372 -97.6319 269° West 351 404 16,500 1,846 Climbing FAA TRACON SMA TRACON (SMA)
Sat 09:10:26 PM 32.7364 -97.7042 268° West 354 407 17,700 2,051 Climbing FAA TRACON SMA TRACON (SMA)
Sat 09:11:05 PM 32.7339 -97.7853 268° West 357 411 19,200 2,175 Climbing FAA TRACON SMA TRACON (SMA)
Sat 09:11:46 PM 32.7314 -97.8678 268° West 361 415 20,600 1,800 Climbing FAA TRACON SMA TRACON (SMA)
Sat 09:12:25 PM 32.7289 -97.9419 266° West 366 421 21,600 1,050 Climbing FAA TRACON SMA TRACON (SMA)
Sat 09:13:06 PM 32.7239 -98.0286 262° West 381 438 22,000 296 Climbing FAA TRACON SMA TRACON (SMA)
Sat 09:13:46 PM 32.7131 -98.1186 262° West 401 461 22,000  Level FAA TRACON SMA TRACON (SMA)
Sat 09:14:25 PM 32.7036 -98.1997 258° West 404 465 22,000  Level FAA TRACON SMA TRACON (SMA)
Sat 09:14:59 PM 32.6906 -98.2725 262° West 403 464 22,000  Level Fort Worth Center
Sat 09:16:00 PM 32.6750 -98.4006 262° West 403 464 22,000  Level Fort Worth Center
Sat 09:16:59 PM 32.6592 -98.5289 262° West 409 471 22,000  Level Fort Worth Center
Sat 09:18:00 PM 32.6436 -98.6544 262° West 403 464 22,000 -150 Level Fort Worth Center
Sat 09:18:59 PM 32.6275 -98.7825 260° West 403 464 21,700 -1,815 Descending Fort Worth Center
Sat 09:19:59 PM 32.6094 -98.9056 262° West 392 451 18,400 -3,550 Descending Fort Worth Center
Sat 09:20:59 PM 32.5956 -99.0211 260° West 378 435 14,600 -3,450 Descending Fort Worth Center
Sat 09:21:59 PM 32.5794 -99.1342 262° West 358 412 11,500 -2,300 Descending Fort Worth Center
Sat 09:22:59 PM 32.5675 -99.2350 261° West 340 391 10,000 -1,537 Descending Fort Worth Center
Sat 09:24:00 PM 32.5558 -99.3236 260° West 304 350 8,400 -1,600 Descending Fort Worth Center
Sat 09:24:59 PM 32.5442 -99.3997 261° West 282 325 6,800 -1,866 Descending Fort Worth Center
Sat 09:25:59 PM 32.5322 -99.4858 261° West 269 310 4,700 -1,500 Descending Fort Worth Center
Sat 09:26:59 PM 32.5203 -99.5742 260° West 269 310 3,800 -650 Descending Fort Worth Center
Sat 09:27:59 PM 32.5083 -99.6575 216° Southwest 269 310 3,400 -550 Descending Fort Worth Center
Sat 09:28:59 PM 32.4725 -99.6886 176° South 206 237 2,700 -750 Descending Fort Worth Center
Sat 09:29:59 PM 32.4328 -99.6853 220° Southwest 151 174 1,900 -446 Descending Fort Worth Center
Sat 09:31:00 PM 32.3989 -99.7189 220° Southwest 141 162 1,800 -98 Descending Fort Worth Center

Login

Don't have an account? Register now (free) for customized features, flight alerts, and more!